Station Historical Data
Daily Summary for December 5, 2017 Units:  Both    English   Metric
« Previous Day
Next Day »
Daily Weekly Monthly Yearly Custom
  High: Low: Average:
Temperature: 53.1 °F /  11.7 °C 35.2 °F /  1.8 °C 47.2 °F /  8.4 °C
Dew Point: 46.7 °F /  8.2 °C 21.5 °F /  -5.8 °C 37.9 °F /  3.3 °C
Humidity: 84% 48% 71%
Wind Speed: 26.0mph /  41.8km/h - 10.2mph /  16.4km/h
Wind Gust: 40.0mph /  64.4km/h - -
Wind- - SSW
Pressure: 29.91 in /  1012.8 hPa 29.69 in /  1005.3 hPa -
Precipitation: 0.48 in /  12.19 mm    
Historical Graphs
 
 
Tabular Data for December 5, 2017
Time Temperature Dew Point Pressure Wind Wind Speed Wind Gust Humidity Rainfall Rate (Hourly)
00:04 52.4 °F /  11.3 °C 34.3 °F /  1.3 °C 29.90in /  1012.4hPa SSE 7.0mph /  11.3km/h 13.0mph /  20.9km/h 50% 0.00in /  0mm
00:09 52.3 °F /  11.3 °C 34.2 °F /  1.2 °C 29.91in /  1012.8hPa South 8.0mph /  12.9km/h 13.0mph /  20.9km/h 50% 0.00in /  0mm
00:14 52.3 °F /  11.3 °C 34.2 °F /  1.2 °C 29.91in /  1012.8hPa SW 6.0mph /  9.7km/h 14.0mph /  22.5km/h 50% 0.00in /  0mm
00:19 52.2 °F /  11.2 °C 34.1 °F /  1.2 °C 29.91in /  1012.8hPa South 7.0mph /  11.3km/h 14.0mph /  22.5km/h 50% 0.00in /  0mm
00:24 52.3 °F /  11.3 °C 34.2 °F /  1.2 °C 29.90in /  1012.4hPa South 8.0mph /  12.9km/h 17.0mph /  27.4km/h 50% 0.00in /  0mm
00:29 52.4 °F /  11.3 °C 34.3 °F /  1.3 °C 29.90in /  1012.4hPa South 9.0mph /  14.5km/h 18.0mph /  29km/h 50% 0.00in /  0mm
00:34 52.4 °F /  11.3 °C 33.8 °F /  1 °C 29.90in /  1012.4hPa South 9.0mph /  14.5km/h 18.0mph /  29km/h 49% 0.00in /  0mm
00:39 52.3 °F /  11.3 °C 34.2 °F /  1.2 °C 29.90in /  1012.4hPa South 8.0mph /  12.9km/h 18.0mph /  29km/h 50% 0.00in /  0mm
00:44 52.2 °F /  11.2 °C 34.1 °F /  1.2 °C 29.90in /  1012.4hPa South 6.0mph /  9.7km/h 13.0mph /  20.9km/h 50% 0.00in /  0mm
00:49 52.2 °F /  11.2 °C 34.1 °F /  1.2 °C 29.90in /  1012.4hPa South 8.0mph /  12.9km/h 13.0mph /  20.9km/h 50% 0.00in /  0mm
00:54 52.1 °F /  11.2 °C 35.0 °F /  1.7 °C 29.89in /  1012.1hPa South 8.0mph /  12.9km/h 18.0mph /  29km/h 52% 0.00in /  0mm
00:59 52.1 °F /  11.2 °C 34.5 °F /  1.4 °C 29.89in /  1012.1hPa SSE 2.0mph /  3.2km/h 12.0mph /  19.3km/h 51% 0.00in /  0mm
01:04 52.0 °F /  11.1 °C 34.4 °F /  1.3 °C 29.89in /  1012.1hPa South 6.0mph /  9.7km/h 13.0mph /  20.9km/h 51% 0.00in /  0mm
01:09 52.2 °F /  11.2 °C 34.1 °F /  1.2 °C 29.88in /  1011.7hPa SSE 14.0mph /  22.5km/h 18.0mph /  29km/h 50% 0.00in /  0mm
01:14 52.3 °F /  11.3 °C 34.2 °F /  1.2 °C 29.88in /  1011.7hPa SSW 10.0mph /  16.1km/h 19.0mph /  30.6km/h 50% 0.00in /  0mm
01:19 52.4 °F /  11.3 °C 33.8 °F /  1 °C 29.89in /  1012.1hPa South 7.0mph /  11.3km/h 19.0mph /  30.6km/h 49% 0.00in /  0mm
01:24 52.4 °F /  11.3 °C 33.8 °F /  1 °C 29.88in /  1011.7hPa South 7.0mph /  11.3km/h 14.0mph /  22.5km/h 49% 0.00in /  0mm
01:29 52.4 °F /  11.3 °C 33.8 °F /  1 °C 29.88in /  1011.7hPa South 7.0mph /  11.3km/h 11.0mph /  17.7km/h 49% 0.00in /  0mm
01:34 52.5 °F /  11.4 °C 33.9 °F /  1.1 °C 29.88in /  1011.7hPa South 7.0mph /  11.3km/h 15.0mph /  24.1km/h 49% 0.00in /  0mm
01:39 52.5 °F /  11.4 °C 33.9 °F /  1.1 °C 29.88in /  1011.7hPa South 5.0mph /  8km/h 13.0mph /  20.9km/h 49% 0.00in /  0mm
01:44 52.6 °F /  11.4 °C 33.5 °F /  0.8 °C 29.90in /  1012.4hPa SSW 6.0mph /  9.7km/h 13.0mph /  20.9km/h 48% 0.00in /  0mm
01:49 52.6 °F /  11.4 °C 33.5 °F /  0.8 °C 29.90in /  1012.4hPa SSW 5.0mph /  8km/h 13.0mph /  20.9km/h 48% 0.00in /  0mm
01:54 52.7 °F /  11.5 °C 33.5 °F /  0.8 °C 29.90in /  1012.4hPa West 5.0mph /  8km/h 12.0mph /  19.3km/h 48% 0.00in /  0mm
01:59 52.6 °F /  11.4 °C 33.5 °F /  0.8 °C 29.89in /  1012.1hPa SW 11.0mph /  17.7km/h 16.0mph /  25.7km/h 48% 0.00in /  0mm
02:04 52.7 °F /  11.5 °C 33.5 °F /  0.8 °C 29.89in /  1012.1hPa South 8.0mph /  12.9km/h 16.0mph /  25.7km/h 48% 0.00in /  0mm
02:09 52.8 °F /  11.6 °C 34.2 °F /  1.2 °C 29.88in /  1011.7hPa SSE 8.0mph /  12.9km/h 16.0mph /  25.7km/h 49% 0.00in /  0mm
02:14 52.7 °F /  11.5 °C 35.1 °F /  1.7 °C 29.88in /  1011.7hPa South 7.0mph /  11.3km/h 16.0mph /  25.7km/h 51% 0.00in /  0mm
02:19 52.3 °F /  11.3 °C 35.2 °F /  1.8 °C 29.88in /  1011.7hPa South 7.0mph /  11.3km/h 16.0mph /  25.7km/h 52% 0.00in /  0mm
02:24 52.1 °F /  11.2 °C 35.5 °F /  1.9 °C 29.88in /  1011.7hPa South 7.0mph /  11.3km/h 16.0mph /  25.7km/h 53% 0.00in /  0mm
02:29 51.8 °F /  11 °C 35.7 °F /  2.1 °C 29.87in /  1011.4hPa SSW 15.0mph /  24.1km/h 16.0mph /  25.7km/h 54% 0.00in /  0mm
02:34 51.5 °F /  10.8 °C 36.3 °F /  2.4 °C 29.87in /  1011.4hPa South 7.0mph /  11.3km/h 16.0mph /  25.7km/h 56% 0.00in /  0mm
02:39 51.2 °F /  10.7 °C 36.0 °F /  2.2 °C 29.87in /  1011.4hPa South 8.0mph /  12.9km/h 16.0mph /  25.7km/h 56% 0.00in /  0mm
02:44 51.0 °F /  10.6 °C 36.7 °F /  2.6 °C 29.87in /  1011.4hPa SSE 8.0mph /  12.9km/h 15.0mph /  24.1km/h 58% 0.00in /  0mm
02:49 50.6 °F /  10.3 °C 37.6 °F /  3.1 °C 29.87in /  1011.4hPa South 9.0mph /  14.5km/h 16.0mph /  25.7km/h 61% 0.01in /  0.25mm
02:54 50.2 °F /  10.1 °C 38.1 °F /  3.4 °C 29.87in /  1011.4hPa SSE 5.0mph /  8km/h 18.0mph /  29km/h 63% 0.02in /  0.51mm
02:59 49.8 °F /  9.9 °C 38.1 °F /  3.4 °C 29.88in /  1011.7hPa South 7.0mph /  11.3km/h 18.0mph /  29km/h 64% 0.02in /  0.51mm
03:04 49.5 °F /  9.7 °C 38.6 °F /  3.7 °C 29.87in /  1011.4hPa SSE 4.0mph /  6.4km/h 13.0mph /  20.9km/h 66% 0.03in /  0.76mm
03:09 49.3 °F /  9.6 °C 38.4 °F /  3.6 °C 29.86in /  1011.1hPa South 7.0mph /  11.3km/h 16.0mph /  25.7km/h 66% 0.03in /  0.76mm
03:14 49.1 °F /  9.5 °C 39.0 °F /  3.9 °C 29.86in /  1011.1hPa South 8.0mph /  12.9km/h 17.0mph /  27.4km/h 68% 0.03in /  0.76mm
03:24 48.6 °F /  9.2 °C 39.3 °F /  4.1 °C 29.85in /  1010.7hPa South 8.0mph /  12.9km/h 18.0mph /  29km/h 70% 0.04in /  1.02mm
03:29 48.5 °F /  9.2 °C 39.5 °F /  4.2 °C 29.85in /  1010.7hPa South 7.0mph /  11.3km/h 13.0mph /  20.9km/h 71% 0.05in /  1.27mm
03:34 48.4 °F /  9.1 °C 39.4 °F /  4.1 °C 29.85in /  1010.7hPa South 3.0mph /  4.8km/h 12.0mph /  19.3km/h 71% 0.05in /  1.27mm
03:39 48.4 °F /  9.1 °C 39.8 °F /  4.3 °C 29.85in /  1010.7hPa South 5.0mph /  8km/h 16.0mph /  25.7km/h 72% 0.06in /  1.52mm
03:49 48.1 °F /  8.9 °C 39.9 °F /  4.4 °C 29.84in /  1010.4hPa South 8.0mph /  12.9km/h 16.0mph /  25.7km/h 73% 0.07in /  1.78mm
03:54 47.9 °F /  8.8 °C 40.0 °F /  4.4 °C 29.84in /  1010.4hPa SSW 5.0mph /  8km/h 9.0mph /  14.5km/h 74% 0.07in /  1.78mm
03:59 47.6 °F /  8.7 °C 40.1 °F /  4.5 °C 29.84in /  1010.4hPa SSW 7.0mph /  11.3km/h 8.0mph /  12.9km/h 75% 0.08in /  2.03mm
04:09 47.3 °F /  8.5 °C 39.8 °F /  4.3 °C 29.84in /  1010.4hPa South 6.0mph /  9.7km/h 12.0mph /  19.3km/h 75% 0.08in /  2.03mm
04:14 47.5 °F /  8.6 °C 40.3 °F /  4.6 °C 29.84in /  1010.4hPa South 6.0mph /  9.7km/h 13.0mph /  20.9km/h 76% 0.08in /  2.03mm
04:19 47.5 °F /  8.6 °C 40.3 °F /  4.6 °C 29.84in /  1010.4hPa South 6.0mph /  9.7km/h 13.0mph /  20.9km/h 76% 0.08in /  2.03mm
04:24 47.4 °F /  8.6 °C 40.2 °F /  4.6 °C 29.84in /  1010.4hPa South 7.0mph /  11.3km/h 15.0mph /  24.1km/h 76% 0.08in /  2.03mm
04:29 47.4 °F /  8.6 °C 40.2 °F /  4.6 °C 29.84in /  1010.4hPa South 6.0mph /  9.7km/h 15.0mph /  24.1km/h 76% 0.09in /  2.29mm
04:34 47.4 °F /  8.6 °C 40.2 °F /  4.6 °C 29.84in /  1010.4hPa South 8.0mph /  12.9km/h 12.0mph /  19.3km/h 76% 0.10in /  2.54mm
04:39 47.5 °F /  8.6 °C 40.6 °F /  4.8 °C 29.84in /  1010.4hPa South 7.0mph /  11.3km/h 14.0mph /  22.5km/h 77% 0.10in /  2.54mm
04:44 47.5 °F /  8.6 °C 40.6 °F /  4.8 °C 29.84in /  1010.4hPa South 8.0mph /  12.9km/h 17.0mph /  27.4km/h 77% 0.09in /  2.29mm
04:49 47.5 °F /  8.6 °C 40.6 °F /  4.8 °C 29.84in /  1010.4hPa South 5.0mph /  8km/h 9.0mph /  14.5km/h 77% 0.09in /  2.29mm
04:54 47.4 °F /  8.6 °C 40.6 °F /  4.8 °C 29.84in /  1010.4hPa SSW 7.0mph /  11.3km/h 8.0mph /  12.9km/h 77% 0.08in /  2.03mm
04:59 47.3 °F /  8.5 °C 40.5 °F /  4.7 °C 29.83in /  1010hPa South 5.0mph /  8km/h 9.0mph /  14.5km/h 77% 0.08in /  2.03mm
05:04 47.3 °F /  8.5 °C 40.8 °F /  4.9 °C 29.83in /  1010hPa SSE 4.0mph /  6.4km/h 12.0mph /  19.3km/h 78% 0.09in /  2.29mm
05:09 47.0 °F /  8.3 °C 40.8 °F /  4.9 °C 29.82in /  1009.7hPa South 6.0mph /  9.7km/h 12.0mph /  19.3km/h 79% 0.09in /  2.29mm
05:14 46.8 °F /  8.2 °C 41.0 °F /  5 °C 29.82in /  1009.7hPa South 6.0mph /  9.7km/h 14.0mph /  22.5km/h 80% 0.10in /  2.54mm
05:19 46.8 °F /  8.2 °C 41.0 °F /  5 °C 29.83in /  1010hPa South 7.0mph /  11.3km/h 15.0mph /  24.1km/h 80% 0.11in /  2.79mm
05:24 46.8 °F /  8.2 °C 41.3 °F /  5.2 °C 29.83in /  1010hPa South 7.0mph /  11.3km/h 17.0mph /  27.4km/h 81% 0.11in /  2.79mm
05:29 46.8 °F /  8.2 °C 41.3 °F /  5.2 °C 29.83in /  1010hPa SSW 7.0mph /  11.3km/h 14.0mph /  22.5km/h 81% 0.11in /  2.79mm
05:34 46.8 °F /  8.2 °C 41.3 °F /  5.2 °C 29.82in /  1009.7hPa South 8.0mph /  12.9km/h 14.0mph /  22.5km/h 81% 0.11in /  2.79mm
05:39 46.7 °F /  8.2 °C 41.5 °F /  5.3 °C 29.82in /  1009.7hPa South 8.0mph /  12.9km/h 17.0mph /  27.4km/h 82% 0.12in /  3.05mm
05:44 46.6 °F /  8.1 °C 41.4 °F /  5.2 °C 29.82in /  1009.7hPa South 7.0mph /  11.3km/h 17.0mph /  27.4km/h 82% 0.13in /  3.3mm
05:49 46.6 °F /  8.1 °C 41.7 °F /  5.4 °C 29.82in /  1009.7hPa South 8.0mph /  12.9km/h 12.0mph /  19.3km/h 83% 0.12in /  3.05mm
05:59 46.6 °F /  8.1 °C 41.7 °F /  5.4 °C 29.82in /  1009.7hPa SSW 6.0mph /  9.7km/h 15.0mph /  24.1km/h 83% 0.12in /  3.05mm
06:04 46.6 °F /  8.1 °C 41.7 °F /  5.4 °C 29.83in /  1010hPa South 8.0mph /  12.9km/h 18.0mph /  29km/h 83% 0.13in /  3.3mm
06:09 46.6 °F /  8.1 °C 41.7 °F /  5.4 °C 29.82in /  1009.7hPa South 7.0mph /  11.3km/h 18.0mph /  29km/h 83% 0.13in /  3.3mm
06:14 46.5 °F /  8.1 °C 41.9 °F /  5.5 °C 29.82in /  1009.7hPa South 7.0mph /  11.3km/h 16.0mph /  25.7km/h 84% 0.12in /  3.05mm
06:19 46.6 °F /  8.1 °C 42.0 °F /  5.6 °C 29.82in /  1009.7hPa South 8.0mph /  12.9km/h 19.0mph /  30.6km/h 84% 0.11in /  2.79mm
06:24 46.8 °F /  8.2 °C 42.2 °F /  5.7 °C 29.81in /  1009.4hPa South 6.0mph /  9.7km/h 15.0mph /  24.1km/h 84% 0.11in /  2.79mm
06:29 46.9 °F /  8.3 °C 42.3 °F /  5.7 °C 29.81in /  1009.4hPa South 11.0mph /  17.7km/h 15.0mph /  24.1km/h 84% 0.10in /  2.54mm
06:34 47.0 °F /  8.3 °C 42.1 °F /  5.6 °C 29.81in /  1009.4hPa South 8.0mph /  12.9km/h 15.0mph /  24.1km/h 83% 0.09in /  2.29mm
06:39 47.1 °F /  8.4 °C 42.2 °F /  5.7 °C 29.82in /  1009.7hPa South 8.0mph /  12.9km/h 16.0mph /  25.7km/h 83% 0.10in /  2.54mm
06:44 47.0 °F /  8.3 °C 42.1 °F /  5.6 °C 29.81in /  1009.4hPa South 7.0mph /  11.3km/h 16.0mph /  25.7km/h 83% 0.09in /  2.29mm
06:49 47.1 °F /  8.4 °C 42.2 °F /  5.7 °C 29.81in /  1009.4hPa South 10.0mph /  16.1km/h 11.0mph /  17.7km/h 83% 0.09in /  2.29mm
06:54 47.2 °F /  8.4 °C 42.3 °F /  5.7 °C 29.81in /  1009.4hPa South 4.0mph /  6.4km/h 13.0mph /  20.9km/h 83% 0.09in /  2.29mm
06:59 47.4 °F /  8.6 °C 42.5 °F /  5.8 °C 29.81in /  1009.4hPa SSE 9.0mph /  14.5km/h 12.0mph /  19.3km/h 83% 0.08in /  2.03mm
07:04 47.6 °F /  8.7 °C 42.4 °F /  5.8 °C 29.81in /  1009.4hPa South 7.0mph /  11.3km/h 17.0mph /  27.4km/h 82% 0.06in /  1.52mm
07:09 47.9 °F /  8.8 °C 42.7 °F /  5.9 °C 29.81in /  1009.4hPa South 8.0mph /  12.9km/h 17.0mph /  27.4km/h 82% 0.04in /  1.02mm
07:14 48.2 °F /  9 °C 42.6 °F /  5.9 °C 29.82in /  1009.7hPa SSW 7.0mph /  11.3km/h 15.0mph /  24.1km/h 81% 0.03in /  0.76mm
07:19 48.4 °F /  9.1 °C 42.8 °F /  6 °C 29.82in /  1009.7hPa WSW 4.0mph /  6.4km/h 14.0mph /  22.5km/h 81% 0.03in /  0.76mm
07:24 48.5 °F /  9.2 °C 42.9 °F /  6.1 °C 29.82in /  1009.7hPa South 15.0mph /  24.1km/h 22.0mph /  35.4km/h 81% 0.04in /  1.02mm
07:29 48.6 °F /  9.2 °C 43.4 °F /  6.3 °C 29.82in /  1009.7hPa SW 8.0mph /  12.9km/h 12.0mph /  19.3km/h 82% 0.04in /  1.02mm
07:34 48.6 °F /  9.2 °C 43.4 °F /  6.3 °C 29.82in /  1009.7hPa SSW 7.0mph /  11.3km/h 17.0mph /  27.4km/h 82% 0.02in /  0.51mm
07:39 48.8 °F /  9.3 °C 43.5 °F /  6.4 °C 29.82in /  1009.7hPa SSW 8.0mph /  12.9km/h 20.0mph /  32.2km/h 82% 0.02in /  0.51mm
07:44 49.0 °F /  9.4 °C 44.1 °F /  6.7 °C 29.82in /  1009.7hPa SSW 8.0mph /  12.9km/h 20.0mph /  32.2km/h 83% 0.03in /  0.76mm
07:49 49.1 °F /  9.5 °C 44.2 °F /  6.8 °C 29.81in /  1009.4hPa WSW 3.0mph /  4.8km/h 23.0mph /  37km/h 83% 0.03in /  0.76mm
07:54 49.3 °F /  9.6 °C 44.4 °F /  6.9 °C 29.82in /  1009.7hPa South 12.0mph /  19.3km/h 18.0mph /  29km/h 83% 0.03in /  0.76mm
07:59 49.3 °F /  9.6 °C 44.4 °F /  6.9 °C 29.82in /  1009.7hPa South 8.0mph /  12.9km/h 17.0mph /  27.4km/h 83% 0.04in /  1.02mm
08:04 49.3 °F /  9.6 °C 44.4 °F /  6.9 °C 29.82in /  1009.7hPa South 8.0mph /  12.9km/h 19.0mph /  30.6km/h 83% 0.04in /  1.02mm
08:09 49.3 °F /  9.6 °C 44.4 °F /  6.9 °C 29.82in /  1009.7hPa SSW 9.0mph /  14.5km/h 21.0mph /  33.8km/h 83% 0.05in /  1.27mm
08:14 49.3 °F /  9.6 °C 44.4 °F /  6.9 °C 29.82in /  1009.7hPa SSW 9.0mph /  14.5km/h 21.0mph /  33.8km/h 83% 0.05in /  1.27mm
08:19 49.2 °F /  9.6 °C 44.3 °F /  6.8 °C 29.82in /  1009.7hPa SSW 9.0mph /  14.5km/h 20.0mph /  32.2km/h 83% 0.06in /  1.52mm
08:24 49.2 °F /  9.6 °C 44.3 °F /  6.8 °C 29.81in /  1009.4hPa South 11.0mph /  17.7km/h 18.0mph /  29km/h 83% 0.05in /  1.27mm
08:29 49.2 °F /  9.6 °C 44.3 °F /  6.8 °C 29.81in /  1009.4hPa South 4.0mph /  6.4km/h 17.0mph /  27.4km/h 83% 0.06in /  1.52mm
08:34 49.1 °F /  9.5 °C 44.5 °F /  6.9 °C 29.80in /  1009hPa SSW 10.0mph /  16.1km/h 19.0mph /  30.6km/h 84% 0.05in /  1.27mm
08:39 49.1 °F /  9.5 °C 44.5 °F /  6.9 °C 29.80in /  1009hPa South 10.0mph /  16.1km/h 19.0mph /  30.6km/h 84% 0.05in /  1.27mm
08:44 49.1 °F /  9.5 °C 44.5 °F /  6.9 °C 29.80in /  1009hPa South 9.0mph /  14.5km/h 26.0mph /  41.8km/h 84% 0.05in /  1.27mm
08:49 49.0 °F /  9.4 °C 44.4 °F /  6.9 °C 29.80in /  1009hPa South 9.0mph /  14.5km/h 26.0mph /  41.8km/h 84% 0.05in /  1.27mm
08:54 48.9 °F /  9.4 °C 44.3 °F /  6.8 °C 29.80in /  1009hPa SSW 5.0mph /  8km/h 18.0mph /  29km/h 84% 0.06in /  1.52mm
08:59 48.9 °F /  9.4 °C 44.3 °F /  6.8 °C 29.80in /  1009hPa SSW 9.0mph /  14.5km/h 21.0mph /  33.8km/h 84% 0.05in /  1.27mm
09:04 48.8 °F /  9.3 °C 44.2 °F /  6.8 °C 29.79in /  1008.7hPa South 9.0mph /  14.5km/h 21.0mph /  33.8km/h 84% 0.05in /  1.27mm
09:09 48.9 °F /  9.4 °C 44.3 °F /  6.8 °C 29.79in /  1008.7hPa SSW 10.0mph /  16.1km/h 23.0mph /  37km/h 84% 0.05in /  1.27mm
09:14 49.0 °F /  9.4 °C 44.4 °F /  6.9 °C 29.79in /  1008.7hPa South 7.0mph /  11.3km/h 21.0mph /  33.8km/h 84% 0.05in /  1.27mm
09:19 49.1 °F /  9.5 °C 44.5 °F /  6.9 °C 29.79in /  1008.7hPa South 9.0mph /  14.5km/h 19.0mph /  30.6km/h 84% 0.04in /  1.02mm
09:29 49.4 °F /  9.7 °C 44.5 °F /  6.9 °C 29.80in /  1009hPa SSW 17.0mph /  27.4km/h 22.0mph /  35.4km/h 83% 0.03in /  0.76mm
09:39 49.7 °F /  9.8 °C 44.7 °F /  7.1 °C 29.80in /  1009hPa South 11.0mph /  17.7km/h 22.0mph /  35.4km/h 83% 0.03in /  0.76mm
09:44 49.7 °F /  9.8 °C 44.4 °F /  6.9 °C 29.79in /  1008.7hPa South 9.0mph /  14.5km/h 22.0mph /  35.4km/h 82% 0.02in /  0.51mm
09:49 49.8 °F /  9.9 °C 44.5 °F /  6.9 °C 29.78in /  1008.4hPa South 9.0mph /  14.5km/h 18.0mph /  29km/h 82% 0.02in /  0.51mm
09:54 49.9 °F /  9.9 °C 44.6 °F /  7 °C 29.79in /  1008.7hPa South 9.0mph /  14.5km/h 20.0mph /  32.2km/h 82% 0.01in /  0.25mm
09:59 49.9 °F /  9.9 °C 44.6 °F /  7 °C 29.79in /  1008.7hPa SSW 7.0mph /  11.3km/h 15.0mph /  24.1km/h 82% 0.01in /  0.25mm
10:04 50.1 °F /  10.1 °C 44.8 °F /  7.1 °C 29.79in /  1008.7hPa SSW 9.0mph /  14.5km/h 23.0mph /  37km/h 82% 0.01in /  0.25mm
10:09 50.3 °F /  10.2 °C 45.0 °F /  7.2 °C 29.78in /  1008.4hPa South 10.0mph /  16.1km/h 23.0mph /  37km/h 82% 0.00in /  0mm
10:14 50.5 °F /  10.3 °C 45.2 °F /  7.3 °C 29.79in /  1008.7hPa SSW 5.0mph /  8km/h 20.0mph /  32.2km/h 82% 0.00in /  0mm
10:19 50.7 °F /  10.4 °C 45.1 °F /  7.3 °C 29.79in /  1008.7hPa South 14.0mph /  22.5km/h 24.0mph /  38.6km/h 81% 0.00in /  0mm
10:24 50.7 °F /  10.4 °C 45.1 °F /  7.3 °C 29.79in /  1008.7hPa WSW 10.0mph /  16.1km/h 18.0mph /  29km/h 81% 0.00in /  0mm
10:29 50.8 °F /  10.4 °C 45.2 °F /  7.3 °C 29.78in /  1008.4hPa SSW 12.0mph /  19.3km/h 19.0mph /  30.6km/h 81% 0.00in /  0mm
10:34 51.0 °F /  10.6 °C 45.0 °F /  7.2 °C 29.78in /  1008.4hPa SSW 9.0mph /  14.5km/h 21.0mph /  33.8km/h 80% 0.00in /  0mm
10:39 51.1 °F /  10.6 °C 45.1 °F /  7.3 °C 29.79in /  1008.7hPa SSW 11.0mph /  17.7km/h 21.0mph /  33.8km/h 80% 0.00in /  0mm
10:44 51.2 °F /  10.7 °C 45.2 °F /  7.3 °C 29.78in /  1008.4hPa SSW 10.0mph /  16.1km/h 29.0mph /  46.7km/h 80% 0.00in /  0mm
10:49 51.4 °F /  10.8 °C 45.4 °F /  7.4 °C 29.77in /  1008hPa South 11.0mph /  17.7km/h 29.0mph /  46.7km/h 80% 0.00in /  0mm
10:54 51.7 °F /  10.9 °C 45.7 °F /  7.6 °C 29.77in /  1008hPa South 11.0mph /  17.7km/h 26.0mph /  41.8km/h 80% 0.00in /  0mm
10:59 51.9 °F /  11.1 °C 45.6 °F /  7.6 °C 29.76in /  1007.7hPa SSW 10.0mph /  16.1km/h 19.0mph /  30.6km/h 79% 0.00in /  0mm
11:04 52.0 °F /  11.1 °C 45.7 °F /  7.6 °C 29.75in /  1007.3hPa South 10.0mph /  16.1km/h 22.0mph /  35.4km/h 79% 0.00in /  0mm
11:09 52.0 °F /  11.1 °C 45.7 °F /  7.6 °C 29.75in /  1007.3hPa South 10.0mph /  16.1km/h 22.0mph /  35.4km/h 79% 0.00in /  0mm
11:19 52.3 °F /  11.3 °C 46.0 °F /  7.8 °C 29.73in /  1006.7hPa South 8.0mph /  12.9km/h 21.0mph /  33.8km/h 79% 0.00in /  0mm
11:24 52.4 °F /  11.3 °C 45.7 °F /  7.6 °C 29.74in /  1007hPa SSE 10.0mph /  16.1km/h 23.0mph /  37km/h 78% 0.00in /  0mm
11:29 52.4 °F /  11.3 °C 45.7 °F /  7.6 °C 29.73in /  1006.7hPa SSW 7.0mph /  11.3km/h 20.0mph /  32.2km/h 78% 0.00in /  0mm
11:34 52.4 °F /  11.3 °C 45.7 °F /  7.6 °C 29.74in /  1007hPa SW 11.0mph /  17.7km/h 24.0mph /  38.6km/h 78% 0.00in /  0mm
11:39 52.4 °F /  11.3 °C 45.7 °F /  7.6 °C 29.72in /  1006.3hPa SSW 11.0mph /  17.7km/h 24.0mph /  38.6km/h 78% 0.00in /  0mm
11:44 52.6 °F /  11.4 °C 45.9 °F /  7.7 °C 29.72in /  1006.3hPa SSW 10.0mph /  16.1km/h 25.0mph /  40.2km/h 78% 0.00in /  0mm
11:49 52.6 °F /  11.4 °C 45.9 °F /  7.7 °C 29.72in /  1006.3hPa SSW 10.0mph /  16.1km/h 25.0mph /  40.2km/h 78% 0.00in /  0mm
11:54 52.7 °F /  11.5 °C 46.0 °F /  7.8 °C 29.73in /  1006.7hPa SSW 10.0mph /  16.1km/h 23.0mph /  37km/h 78% 0.00in /  0mm
11:59 52.7 °F /  11.5 °C 46.0 °F /  7.8 °C 29.72in /  1006.3hPa SSW 11.0mph /  17.7km/h 25.0mph /  40.2km/h 78% 0.00in /  0mm
12:04 52.7 °F /  11.5 °C 46.0 °F /  7.8 °C 29.73in /  1006.7hPa SSW 11.0mph /  17.7km/h 25.0mph /  40.2km/h 78% 0.00in /  0mm
12:09 52.8 °F /  11.6 °C 46.1 °F /  7.8 °C 29.73in /  1006.7hPa SSE 23.0mph /  37km/h 25.0mph /  40.2km/h 78% 0.00in /  0mm
12:14 52.8 °F /  11.6 °C 46.1 °F /  7.8 °C 29.73in /  1006.7hPa SSE 10.0mph /  16.1km/h 24.0mph /  38.6km/h 78% 0.00in /  0mm
12:19 52.8 °F /  11.6 °C 46.1 °F /  7.8 °C 29.73in /  1006.7hPa SSW 13.0mph /  20.9km/h 32.0mph /  51.5km/h 78% 0.00in /  0mm
12:24 52.8 °F /  11.6 °C 46.1 °F /  7.8 °C 29.73in /  1006.7hPa SSW 13.0mph /  20.9km/h 22.0mph /  35.4km/h 78% 0.00in /  0mm
12:29 52.8 °F /  11.6 °C 46.1 °F /  7.8 °C 29.73in /  1006.7hPa South 10.0mph /  16.1km/h 20.0mph /  32.2km/h 78% 0.00in /  0mm
12:34 52.7 °F /  11.5 °C 46.0 °F /  7.8 °C 29.73in /  1006.7hPa SSW 11.0mph /  17.7km/h 23.0mph /  37km/h 78% 0.00in /  0mm
12:39 52.6 °F /  11.4 °C 45.9 °F /  7.7 °C 29.72in /  1006.3hPa SSW 11.0mph /  17.7km/h 23.0mph /  37km/h 78% 0.00in /  0mm
12:44 52.6 °F /  11.4 °C 45.9 °F /  7.7 °C 29.72in /  1006.3hPa SSW 12.0mph /  19.3km/h 23.0mph /  37km/h 78% 0.00in /  0mm
12:49 52.8 °F /  11.6 °C 46.5 °F /  8.1 °C 29.72in /  1006.3hPa SSW 11.0mph /  17.7km/h 23.0mph /  37km/h 79% 0.00in /  0mm
12:54 52.9 °F /  11.6 °C 46.6 °F /  8.1 °C 29.72in /  1006.3hPa SSW 10.0mph /  16.1km/h 22.0mph /  35.4km/h 79% 0.00in /  0mm
12:59 53.0 °F /  11.7 °C 46.3 °F /  7.9 °C 29.72in /  1006.3hPa SSW 9.0mph /  14.5km/h 25.0mph /  40.2km/h 78% 0.00in /  0mm
13:04 52.8 °F /  11.6 °C 46.1 °F /  7.8 °C 29.71in /  1006hPa WSW 13.0mph /  20.9km/h 24.0mph /  38.6km/h 78% 0.00in /  0mm
13:09 52.7 °F /  11.5 °C 46.0 °F /  7.8 °C 29.71in /  1006hPa SSW 11.0mph /  17.7km/h 25.0mph /  40.2km/h 78% 0.00in /  0mm
13:14 52.6 °F /  11.4 °C 46.3 °F /  7.9 °C 29.71in /  1006hPa SSE 11.0mph /  17.7km/h 23.0mph /  37km/h 79% 0.00in /  0mm
13:19 52.8 °F /  11.6 °C 46.1 °F /  7.8 °C 29.72in /  1006.3hPa SSW 9.0mph /  14.5km/h 21.0mph /  33.8km/h 78% 0.00in /  0mm
13:24 52.9 °F /  11.6 °C 46.2 °F /  7.9 °C 29.72in /  1006.3hPa SW 7.0mph /  11.3km/h 19.0mph /  30.6km/h 78% 0.00in /  0mm
13:29 52.9 °F /  11.6 °C 46.6 °F /  8.1 °C 29.70in /  1005.6hPa SSW 8.0mph /  12.9km/h 19.0mph /  30.6km/h 79% 0.00in /  0mm
13:34 53.0 °F /  11.7 °C 46.7 °F /  8.2 °C 29.70in /  1005.6hPa SSW 9.0mph /  14.5km/h 19.0mph /  30.6km/h 79% 0.00in /  0mm
13:39 53.1 °F /  11.7 °C 46.4 °F /  8 °C 29.70in /  1005.6hPa SSW 9.0mph /  14.5km/h 21.0mph /  33.8km/h 78% 0.00in /  0mm
13:44 52.9 °F /  11.6 °C 46.2 °F /  7.9 °C 29.70in /  1005.6hPa SSW 9.0mph /  14.5km/h 21.0mph /  33.8km/h 78% 0.00in /  0mm
13:49 52.9 °F /  11.6 °C 46.2 °F /  7.9 °C 29.69in /  1005.3hPa SSW 9.0mph /  14.5km/h 20.0mph /  32.2km/h 78% 0.00in /  0mm
13:54 52.8 °F /  11.6 °C 46.1 °F /  7.8 °C 29.70in /  1005.6hPa SSW 9.0mph /  14.5km/h 20.0mph /  32.2km/h 78% 0.00in /  0mm
13:59 52.8 °F /  11.6 °C 46.1 °F /  7.8 °C 29.69in /  1005.3hPa SSW 7.0mph /  11.3km/h 20.0mph /  32.2km/h 78% 0.00in /  0mm
14:04 52.7 °F /  11.5 °C 46.0 °F /  7.8 °C 29.70in /  1005.6hPa WSW 5.0mph /  8km/h 17.0mph /  27.4km/h 78% 0.00in /  0mm
14:09 52.6 °F /  11.4 °C 45.9 °F /  7.7 °C 29.71in /  1006hPa WSW 14.0mph /  22.5km/h 23.0mph /  37km/h 78% 0.00in /  0mm
14:14 51.5 °F /  10.8 °C 44.9 °F /  7.2 °C 29.70in /  1005.6hPa SW 8.0mph /  12.9km/h 20.0mph /  32.2km/h 78% 0.00in /  0mm
14:19 50.5 °F /  10.3 °C 43.9 °F /  6.6 °C 29.71in /  1006hPa WSW 10.0mph /  16.1km/h 19.0mph /  30.6km/h 78% 0.00in /  0mm
14:24 49.8 °F /  9.9 °C 43.5 °F /  6.4 °C 29.71in /  1006hPa WSW 9.0mph /  14.5km/h 18.0mph /  29km/h 79% 0.00in /  0mm
14:29 49.5 °F /  9.7 °C 43.6 °F /  6.4 °C 29.71in /  1006hPa WSW 10.0mph /  16.1km/h 18.0mph /  29km/h 80% 0.00in /  0mm
14:34 49.2 °F /  9.6 °C 43.6 °F /  6.4 °C 29.72in /  1006.3hPa SW 10.0mph /  16.1km/h 21.0mph /  33.8km/h 81% 0.00in /  0mm
14:39 48.9 °F /  9.4 °C 43.3 °F /  6.3 °C 29.72in /  1006.3hPa WSW 9.0mph /  14.5km/h 21.0mph /  33.8km/h 81% 0.00in /  0mm
14:44 48.2 °F /  9 °C 42.3 °F /  5.7 °C 29.72in /  1006.3hPa WSW 10.0mph /  16.1km/h 18.0mph /  29km/h 80% 0.00in /  0mm
14:49 47.9 °F /  8.8 °C 42.0 °F /  5.6 °C 29.72in /  1006.3hPa WSW 10.0mph /  16.1km/h 17.0mph /  27.4km/h 80% 0.00in /  0mm
14:54 47.6 °F /  8.7 °C 41.7 °F /  5.4 °C 29.71in /  1006hPa SW 13.0mph /  20.9km/h 18.0mph /  29km/h 80% 0.00in /  0mm
14:59 47.4 °F /  8.6 °C 41.5 °F /  5.3 °C 29.72in /  1006.3hPa WSW 9.0mph /  14.5km/h 22.0mph /  35.4km/h 80% 0.00in /  0mm
15:04 47.3 °F /  8.5 °C 41.1 °F /  5.1 °C 29.71in /  1006hPa SSW 13.0mph /  20.9km/h 20.0mph /  32.2km/h 79% 0.00in /  0mm
15:09 47.0 °F /  8.3 °C 40.8 °F /  4.9 °C 29.72in /  1006.3hPa South 8.0mph /  12.9km/h 23.0mph /  37km/h 79% 0.00in /  0mm
15:19 46.6 °F /  8.1 °C 40.4 °F /  4.7 °C 29.71in /  1006hPa SSW 13.0mph /  20.9km/h 19.0mph /  30.6km/h 79% 0.00in /  0mm
15:24 46.4 °F /  8 °C 39.9 °F /  4.4 °C 29.71in /  1006hPa SW 10.0mph /  16.1km/h 22.0mph /  35.4km/h 78% 0.00in /  0mm
15:29 46.2 °F /  7.9 °C 39.7 °F /  4.3 °C 29.71in /  1006hPa SW 11.0mph /  17.7km/h 22.0mph /  35.4km/h 78% 0.00in /  0mm
15:34 46.1 °F /  7.8 °C 39.6 °F /  4.2 °C 29.70in /  1005.6hPa SW 11.0mph /  17.7km/h 18.0mph /  29km/h 78% 0.00in /  0mm
15:39 46.0 °F /  7.8 °C 39.5 °F /  4.2 °C 29.70in /  1005.6hPa SW 10.0mph /  16.1km/h 21.0mph /  33.8km/h 78% 0.00in /  0mm
15:44 45.9 °F /  7.7 °C 39.4 °F /  4.1 °C 29.70in /  1005.6hPa SW 9.0mph /  14.5km/h 21.0mph /  33.8km/h 78% 0.00in /  0mm
15:49 45.9 °F /  7.7 °C 39.4 °F /  4.1 °C 29.70in /  1005.6hPa SW 10.0mph /  16.1km/h 22.0mph /  35.4km/h 78% 0.00in /  0mm
15:54 45.9 °F /  7.7 °C 39.8 °F /  4.3 °C 29.70in /  1005.6hPa SSE 7.0mph /  11.3km/h 18.0mph /  29km/h 79% 0.00in /  0mm
15:59 45.9 °F /  7.7 °C 39.8 °F /  4.3 °C 29.70in /  1005.6hPa SW 9.0mph /  14.5km/h 18.0mph /  29km/h 79% 0.00in /  0mm
16:04 45.9 °F /  7.7 °C 39.4 °F /  4.1 °C 29.69in /  1005.3hPa SW 8.0mph /  12.9km/h 19.0mph /  30.6km/h 78% 0.00in /  0mm
16:09 45.9 °F /  7.7 °C 39.4 °F /  4.1 °C 29.69in /  1005.3hPa SW 15.0mph /  24.1km/h 21.0mph /  33.8km/h 78% 0.00in /  0mm
16:14 45.9 °F /  7.7 °C 39.1 °F /  3.9 °C 29.70in /  1005.6hPa SW 12.0mph /  19.3km/h 18.0mph /  29km/h 77% 0.00in /  0mm
16:19 45.9 °F /  7.7 °C 38.8 °F /  3.8 °C 29.70in /  1005.6hPa SW 4.0mph /  6.4km/h 18.0mph /  29km/h 76% 0.00in /  0mm
16:24 45.9 °F /  7.7 °C 38.4 °F /  3.6 °C 29.71in /  1006hPa SW 10.0mph /  16.1km/h 18.0mph /  29km/h 75% 0.00in /  0mm
16:29 46.0 °F /  7.8 °C 38.5 °F /  3.6 °C 29.71in /  1006hPa West 8.0mph /  12.9km/h 17.0mph /  27.4km/h 75% 0.00in /  0mm
16:34 46.1 °F /  7.8 °C 38.3 °F /  3.5 °C 29.72in /  1006.3hPa WSW 14.0mph /  22.5km/h 21.0mph /  33.8km/h 74% 0.00in /  0mm
16:39 46.2 °F /  7.9 °C 38.4 °F /  3.6 °C 29.71in /  1006hPa SW 7.0mph /  11.3km/h 19.0mph /  30.6km/h 74% 0.00in /  0mm
16:44 46.2 °F /  7.9 °C 38.7 °F /  3.7 °C 29.71in /  1006hPa SSW 4.0mph /  6.4km/h 22.0mph /  35.4km/h 75% 0.00in /  0mm
16:49 46.2 °F /  7.9 °C 38.7 °F /  3.7 °C 29.71in /  1006hPa WSW 14.0mph /  22.5km/h 20.0mph /  32.2km/h 75% 0.00in /  0mm
16:54 46.3 °F /  7.9 °C 38.8 °F /  3.8 °C 29.70in /  1005.6hPa WSW 9.0mph /  14.5km/h 20.0mph /  32.2km/h 75% 0.00in /  0mm
16:59 46.2 °F /  7.9 °C 38.7 °F /  3.7 °C 29.71in /  1006hPa WSW 9.0mph /  14.5km/h 20.0mph /  32.2km/h 75% 0.00in /  0mm
17:04 46.2 °F /  7.9 °C 37.7 °F /  3.2 °C 29.71in /  1006hPa SW 10.0mph /  16.1km/h 22.0mph /  35.4km/h 72% 0.00in /  0mm
17:09 46.2 °F /  7.9 °C 37.3 °F /  2.9 °C 29.71in /  1006hPa WSW 3.0mph /  4.8km/h 14.0mph /  22.5km/h 71% 0.00in /  0mm
17:14 46.2 °F /  7.9 °C 37.3 °F /  2.9 °C 29.71in /  1006hPa SSW 9.0mph /  14.5km/h 13.0mph /  20.9km/h 71% 0.00in /  0mm
17:24 46.0 °F /  7.8 °C 36.4 °F /  2.4 °C 29.70in /  1005.6hPa West 5.0mph /  8km/h 19.0mph /  30.6km/h 69% 0.00in /  0mm
17:29 45.8 °F /  7.7 °C 36.2 °F /  2.3 °C 29.71in /  1006hPa SW 7.0mph /  11.3km/h 18.0mph /  29km/h 69% 0.00in /  0mm
17:34 45.8 °F /  7.7 °C 36.2 °F /  2.3 °C 29.70in /  1005.6hPa WSW 8.0mph /  12.9km/h 18.0mph /  29km/h 69% 0.00in /  0mm
17:39 45.8 °F /  7.7 °C 36.2 °F /  2.3 °C 29.71in /  1006hPa WSW 6.0mph /  9.7km/h 17.0mph /  27.4km/h 69% 0.00in /  0mm
17:44 46.0 °F /  7.8 °C 36.0 °F /  2.2 °C 29.71in /  1006hPa WSW 15.0mph /  24.1km/h 21.0mph /  33.8km/h 68% 0.00in /  0mm
17:49 46.0 °F /  7.8 °C 35.7 °F /  2.1 °C 29.71in /  1006hPa WSW 11.0mph /  17.7km/h 21.0mph /  33.8km/h 67% 0.00in /  0mm
17:54 46.1 °F /  7.8 °C 35.7 °F /  2.1 °C 29.71in /  1006hPa WSW 13.0mph /  20.9km/h 23.0mph /  37km/h 67% 0.00in /  0mm
17:59 46.0 °F /  7.8 °C 34.9 °F /  1.6 °C 29.71in /  1006hPa WSW 12.0mph /  19.3km/h 23.0mph /  37km/h 65% 0.00in /  0mm
18:04 46.0 °F /  7.8 °C 34.5 °F /  1.4 °C 29.71in /  1006hPa WSW 12.0mph /  19.3km/h 25.0mph /  40.2km/h 64% 0.00in /  0mm
18:09 46.1 °F /  7.8 °C 34.6 °F /  1.4 °C 29.72in /  1006.3hPa SW 18.0mph /  29km/h 29.0mph /  46.7km/h 64% 0.00in /  0mm
18:14 45.9 °F /  7.7 °C 34.0 °F /  1.1 °C 29.71in /  1006hPa WSW 17.0mph /  27.4km/h 29.0mph /  46.7km/h 63% 0.00in /  0mm
18:19 45.7 °F /  7.6 °C 34.2 °F /  1.2 °C 29.71in /  1006hPa SW 6.0mph /  9.7km/h 25.0mph /  40.2km/h 64% 0.00in /  0mm
18:24 45.6 °F /  7.6 °C 34.5 °F /  1.4 °C 29.72in /  1006.3hPa WSW 14.0mph /  22.5km/h 26.0mph /  41.8km/h 65% 0.00in /  0mm
18:29 45.4 °F /  7.4 °C 35.1 °F /  1.7 °C 29.72in /  1006.3hPa West 19.0mph /  30.6km/h 29.0mph /  46.7km/h 67% 0.00in /  0mm
18:34 45.2 °F /  7.3 °C 34.9 °F /  1.6 °C 29.73in /  1006.7hPa WSW 21.0mph /  33.8km/h 34.0mph /  54.7km/h 67% 0.00in /  0mm
18:39 44.9 °F /  7.2 °C 35.0 °F /  1.7 °C 29.73in /  1006.7hPa WNW 19.0mph /  30.6km/h 25.0mph /  40.2km/h 68% 0.00in /  0mm
18:44 44.5 °F /  6.9 °C 35.3 °F /  1.8 °C 29.73in /  1006.7hPa WSW 14.0mph /  22.5km/h 26.0mph /  41.8km/h 70% 0.00in /  0mm
18:49 44.1 °F /  6.7 °C 34.6 °F /  1.4 °C 29.73in /  1006.7hPa WSW 14.0mph /  22.5km/h 26.0mph /  41.8km/h 69% 0.00in /  0mm
18:54 43.8 °F /  6.6 °C 33.6 °F /  0.9 °C 29.74in /  1007hPa WSW 15.0mph /  24.1km/h 27.0mph /  43.5km/h 67% 0.00in /  0mm
18:59 43.5 °F /  6.4 °C 32.9 °F /  0.5 °C 29.74in /  1007hPa West 15.0mph /  24.1km/h 30.0mph /  48.3km/h 66% 0.00in /  0mm
19:04 43.3 °F /  6.3 °C 32.7 °F /  0.4 °C 29.75in /  1007.3hPa WSW 19.0mph /  30.6km/h 24.0mph /  38.6km/h 66% 0.00in /  0mm
19:09 43.2 °F /  6.2 °C 32.6 °F /  0.3 °C 29.75in /  1007.3hPa WSW 13.0mph /  20.9km/h 24.0mph /  38.6km/h 66% 0.00in /  0mm
19:14 43.2 °F /  6.2 °C 33.0 °F /  0.6 °C 29.75in /  1007.3hPa WSW 12.0mph /  19.3km/h 23.0mph /  37km/h 67% 0.00in /  0mm
19:19 43.2 °F /  6.2 °C 33.0 °F /  0.6 °C 29.76in /  1007.7hPa WSW 15.0mph /  24.1km/h 26.0mph /  41.8km/h 67% 0.00in /  0mm
19:24 43.1 °F /  6.2 °C 32.1 °F /  0.1 °C 29.76in /  1007.7hPa SW 15.0mph /  24.1km/h 28.0mph /  45.1km/h 65% 0.00in /  0mm
19:29 43.1 °F /  6.2 °C 32.1 °F /  0.1 °C 29.76in /  1007.7hPa WNW 14.0mph /  22.5km/h 27.0mph /  43.5km/h 65% 0.00in /  0mm
19:34 42.9 °F /  6.1 °C 32.3 °F /  0.2 °C 29.76in /  1007.7hPa WSW 26.0mph /  41.8km/h 31.0mph /  49.9km/h 66% 0.00in /  0mm
19:39 42.6 °F /  5.9 °C 32.0 °F /  0 °C 29.75in /  1007.3hPa WSW 15.0mph /  24.1km/h 31.0mph /  49.9km/h 66% 0.00in /  0mm
19:44 42.5 °F /  5.8 °C 31.9 °F /  -0.1 °C 29.77in /  1008hPa WSW 17.0mph /  27.4km/h 36.0mph /  57.9km/h 66% 0.00in /  0mm
19:49 42.3 °F /  5.7 °C 31.4 °F /  -0.3 °C 29.77in /  1008hPa WSW 15.0mph /  24.1km/h 36.0mph /  57.9km/h 65% 0.00in /  0mm
19:54 42.1 °F /  5.6 °C 30.0 °F /  -1.1 °C 29.77in /  1008hPa WSW 15.0mph /  24.1km/h 31.0mph /  49.9km/h 62% 0.00in /  0mm
19:59 42.0 °F /  5.6 °C 30.7 °F /  -0.7 °C 29.77in /  1008hPa WNW 13.0mph /  20.9km/h 34.0mph /  54.7km/h 64% 0.00in /  0mm
20:04 41.9 °F /  5.5 °C 30.2 °F /  -1 °C 29.77in /  1008hPa WSW 15.0mph /  24.1km/h 34.0mph /  54.7km/h 63% 0.00in /  0mm
20:09 41.7 °F /  5.4 °C 28.8 °F /  -1.8 °C 29.78in /  1008.4hPa WSW 14.0mph /  22.5km/h 34.0mph /  54.7km/h 60% 0.00in /  0mm
20:14 41.5 °F /  5.3 °C 27.8 °F /  -2.3 °C 29.77in /  1008hPa WSW 16.0mph /  25.7km/h 34.0mph /  54.7km/h 58% 0.00in /  0mm
20:19 41.3 °F /  5.2 °C 26.8 °F /  -2.9 °C 29.78in /  1008.4hPa WSW 17.0mph /  27.4km/h 35.0mph /  56.3km/h 56% 0.00in /  0mm
20:24 41.3 °F /  5.2 °C 28.0 °F /  -2.2 °C 29.78in /  1008.4hPa SW 23.0mph /  37km/h 36.0mph /  57.9km/h 59% 0.00in /  0mm
20:29 41.2 °F /  5.1 °C 28.4 °F /  -2 °C 29.78in /  1008.4hPa WSW 12.0mph /  19.3km/h 31.0mph /  49.9km/h 60% 0.00in /  0mm
20:34 41.1 °F /  5.1 °C 29.1 °F /  -1.6 °C 29.78in /  1008.4hPa West 15.0mph /  24.1km/h 28.0mph /  45.1km/h 62% 0.00in /  0mm
20:39 41.1 °F /  5.1 °C 29.5 °F /  -1.4 °C 29.79in /  1008.7hPa WSW 18.0mph /  29km/h 26.0mph /  41.8km/h 63% 0.00in /  0mm
20:44 40.9 °F /  4.9 °C 28.9 °F /  -1.7 °C 29.78in /  1008.4hPa WSW 15.0mph /  24.1km/h 30.0mph /  48.3km/h 62% 0.00in /  0mm
20:49 40.7 °F /  4.8 °C 29.5 °F /  -1.4 °C 29.80in /  1009hPa WSW 7.0mph /  11.3km/h 31.0mph /  49.9km/h 64% 0.00in /  0mm
20:54 40.3 °F /  4.6 °C 28.3 °F /  -2.1 °C 29.80in /  1009hPa WNW 22.0mph /  35.4km/h 25.0mph /  40.2km/h 62% 0.00in /  0mm
20:59 40.0 °F /  4.4 °C 27.2 °F /  -2.7 °C 29.80in /  1009hPa WSW 15.0mph /  24.1km/h 31.0mph /  49.9km/h 60% 0.00in /  0mm
21:04 39.8 °F /  4.3 °C 27.8 °F /  -2.3 °C 29.79in /  1008.7hPa WSW 17.0mph /  27.4km/h 40.0mph /  64.4km/h 62% 0.00in /  0mm
21:14 39.7 °F /  4.3 °C 27.7 °F /  -2.4 °C 29.79in /  1008.7hPa WSW 16.0mph /  25.7km/h 38.0mph /  61.2km/h 62% 0.00in /  0mm
21:19 39.6 °F /  4.2 °C 28.0 °F /  -2.2 °C 29.80in /  1009hPa WSW 15.0mph /  24.1km/h 38.0mph /  61.2km/h 63% 0.00in /  0mm
21:24 39.5 °F /  4.2 °C 27.9 °F /  -2.3 °C 29.80in /  1009hPa WSW 14.0mph /  22.5km/h 31.0mph /  49.9km/h 63% 0.00in /  0mm
21:29 39.4 °F /  4.1 °C 27.5 °F /  -2.5 °C 29.80in /  1009hPa WNW 21.0mph /  33.8km/h 28.0mph /  45.1km/h 62% 0.00in /  0mm
21:34 39.3 °F /  4.1 °C 27.0 °F /  -2.8 °C 29.81in /  1009.4hPa West 18.0mph /  29km/h 29.0mph /  46.7km/h 61% 0.00in /  0mm
21:39 39.1 °F /  3.9 °C 27.6 °F /  -2.4 °C 29.82in /  1009.7hPa WSW 20.0mph /  32.2km/h 28.0mph /  45.1km/h 63% 0.00in /  0mm
21:44 38.7 °F /  3.7 °C 26.8 °F /  -2.9 °C 29.82in /  1009.7hPa SW 20.0mph /  32.2km/h 31.0mph /  49.9km/h 62% 0.00in /  0mm
21:49 38.3 °F /  3.5 °C 26.8 °F /  -2.9 °C 29.83in /  1010hPa West 9.0mph /  14.5km/h 24.0mph /  38.6km/h 63% 0.00in /  0mm
21:54 37.8 °F /  3.2 °C 25.1 °F /  -3.8 °C 29.83in /  1010hPa WSW 13.0mph /  20.9km/h 24.0mph /  38.6km/h 60% 0.00in /  0mm
21:59 37.3 °F /  2.9 °C 23.9 °F /  -4.5 °C 29.83in /  1010hPa WSW 15.0mph /  24.1km/h 38.0mph /  61.2km/h 58% 0.00in /  0mm
22:04 37.1 °F /  2.8 °C 23.7 °F /  -4.6 °C 29.83in /  1010hPa WSW 16.0mph /  25.7km/h 38.0mph /  61.2km/h 58% 0.00in /  0mm
22:09 36.9 °F /  2.7 °C 23.5 °F /  -4.7 °C 29.83in /  1010hPa WSW 14.0mph /  22.5km/h 28.0mph /  45.1km/h 58% 0.00in /  0mm
22:15 36.7 °F /  2.6 °C 22.5 °F /  -5.3 °C 29.84in /  1010.4hPa WSW 18.0mph /  29km/h 32.0mph /  51.5km/h 56% 0.00in /  0mm
22:20 36.6 °F /  2.6 °C 23.6 °F /  -4.7 °C 29.84in /  1010.4hPa WSW 17.0mph /  27.4km/h 32.0mph /  51.5km/h 59% 0.00in /  0mm
22:25 36.5 °F /  2.5 °C 23.5 °F /  -4.7 °C 29.84in /  1010.4hPa WSW 12.0mph /  19.3km/h 32.0mph /  51.5km/h 59% 0.00in /  0mm
22:39 36.4 °F /  2.4 °C 23.0 °F /  -5 °C 29.84in /  1010.4hPa WSW 17.0mph /  27.4km/h 32.0mph /  51.5km/h 58% 0.00in /  0mm
22:45 36.1 °F /  2.3 °C 21.9 °F /  -5.6 °C 29.86in /  1011.1hPa West 23.0mph /  37km/h 30.0mph /  48.3km/h 56% 0.00in /  0mm
22:50 36.0 °F /  2.2 °C 21.8 °F /  -5.7 °C 29.85in /  1010.7hPa WNW 17.0mph /  27.4km/h 29.0mph /  46.7km/h 56% 0.00in /  0mm
22:55 35.9 °F /  2.2 °C 22.1 °F /  -5.5 °C 29.86in /  1011.1hPa West 19.0mph /  30.6km/h 27.0mph /  43.5km/h 57% 0.00in /  0mm
23:00 35.7 °F /  2.1 °C 21.5 °F /  -5.8 °C 29.85in /  1010.7hPa West 8.0mph /  12.9km/h 25.0mph /  40.2km/h 56% 0.00in /  0mm
23:05 35.7 °F /  2.1 °C 21.9 °F /  -5.6 °C 29.85in /  1010.7hPa SSW 8.0mph /  12.9km/h 25.0mph /  40.2km/h 57% 0.00in /  0mm
23:10 35.6 °F /  2 °C 21.9 °F /  -5.6 °C 29.85in /  1010.7hPa West 11.0mph /  17.7km/h 25.0mph /  40.2km/h 57% 0.00in /  0mm
23:15 35.5 °F /  1.9 °C 21.8 °F /  -5.7 °C 29.85in /  1010.7hPa West 12.0mph /  19.3km/h 21.0mph /  33.8km/h 57% 0.00in /  0mm
23:20 35.4 °F /  1.9 °C 22.1 °F /  -5.5 °C 29.85in /  1010.7hPa WSW 6.0mph /  9.7km/h 21.0mph /  33.8km/h 58% 0.00in /  0mm
23:25 35.3 °F /  1.8 °C 22.0 °F /  -5.6 °C 29.86in /  1011.1hPa WSW 7.0mph /  11.3km/h 14.0mph /  22.5km/h 58% 0.00in /  0mm
23:30 35.2 °F /  1.8 °C 22.3 °F /  -5.4 °C 29.86in /  1011.1hPa West 6.0mph /  9.7km/h 14.0mph /  22.5km/h 59% 0.00in /  0mm
23:35 35.3 °F /  1.8 °C 22.4 °F /  -5.3 °C 29.86in /  1011.1hPa West 9.0mph /  14.5km/h 17.0mph /  27.4km/h 59% 0.00in /  0mm
23:40 35.5 °F /  1.9 °C 22.2 °F /  -5.4 °C 29.86in /  1011.1hPa WNW 19.0mph /  30.6km/h 21.0mph /  33.8km/h 58% 0.00in /  0mm
23:45 35.6 °F /  2 °C 22.3 °F /  -5.4 °C 29.86in /  1011.1hPa WSW 14.0mph /  22.5km/h 23.0mph /  37km/h 58% 0.00in /  0mm
23:50 35.6 °F /  2 °C 22.3 °F /  -5.4 °C 29.85in /  1010.7hPa SW 12.0mph /  19.3km/h 21.0mph /  33.8km/h 58% 0.00in /  0mm
23:55 35.6 °F /  2 °C 22.3 °F /  -5.4 °C 29.85in /  1010.7hPa WSW 4.0mph /  6.4km/h 17.0mph /  27.4km/h 58% 0.00in /  0mm
Buffalo, New York, USA
Compliments of Weather Underground - 2.25 mb